KAIZ/AIZ METAR and TAF weather

Enter ICAO airport designator
Station Type Date Time Source
KAIZ METAR 2018/09/20 17:56 UTC NOAA

KAIZ 201756Z AUTO 23009KT 10SM SCT045 SCT050 33/23 A2996 RMK AO2 SLP135 T03280233 10328 20228 58012


Station Type Date Time Source
KAIZ Decoded METAR 2018/09/20 17:56 UTC NOAA

Kaiser Lake Ozark, Lee C Fine Memorial Airport, MO, United States (KAIZ) 38-06N 092-33W
Sep 20, 2018 - 01:56 PM EDT / 2018.09.20 1756 UTC
Wind: from the SW (230 degrees) at 10 MPH (9 KT):0
Visibility: 10 mile(s):0
Sky conditions: partly cloudy
Temperature: 91.0 F (32.8 C)
Heat index: 100.2 F (37.9 C):1
Dew Point: 73.9 F (23.3 C)
Relative Humidity: 57%
Pressure (altimeter): 29.96 in. Hg (1014 hPa)
Pressure tendency: 0.04 inches (1.2 hPa) lower than three hours ago
ob: KAIZ 201756Z AUTO 23009KT 10SM SCT045 SCT050 33/23 A2996 RMK AO2 SLP135 T03280233 10328 20228 58012
cycle: 18

Station Type Date Time Source
KAIZ TAF UTC NOAA

Error!


Example: see airport list